sensor_id;sensor_type;location;lat;lon;timestamp;P1;durP1;ratioP1;P2;durP2;ratioP2
69199;SDS011;56313;49.804;9.952;2022-07-23T00:00:12;12.88;;;6.32;;
69199;SDS011;56313;49.804;9.952;2022-07-23T00:02:38;15.52;;;7.00;;
69199;SDS011;56313;49.804;9.952;2022-07-23T00:05:04;9.55;;;6.72;;
69199;SDS011;56313;49.804;9.952;2022-07-23T00:07:36;9.88;;;6.72;;
69199;SDS011;56313;49.804;9.952;2022-07-23T00:10:02;16.17;;;7.32;;
69199;SDS011;56313;49.804;9.952;2022-07-23T00:15:13;11.55;;;7.70;;
69199;SDS011;56313;49.804;9.952;2022-07-23T00:17:39;11.30;;;7.25;;
69199;SDS011;56313;49.804;9.952;2022-07-23T00:20:05;11.95;;;8.20;;
69199;SDS011;56313;49.804;9.952;2022-07-23T00:22:31;12.98;;;8.52;;
69199;SDS011;56313;49.804;9.952;2022-07-23T00:24:56;11.77;;;8.00;;
69199;SDS011;56313;49.804;9.952;2022-07-23T00:27:22;13.32;;;7.90;;
69199;SDS011;56313;49.804;9.952;2022-07-23T00:29:50;9.98;;;7.30;;
69199;SDS011;56313;49.804;9.952;2022-07-23T00:32:16;12.80;;;8.00;;
69199;SDS011;56313;49.804;9.952;2022-07-23T00:34:47;9.50;;;7.50;;
69199;SDS011;56313;49.804;9.952;2022-07-23T00:37:12;12.57;;;7.10;;
69199;SDS011;56313;49.804;9.952;2022-07-23T00:39:38;10.65;;;7.75;;
69199;SDS011;56313;49.804;9.952;2022-07-23T00:42:03;13.25;;;7.63;;
69199;SDS011;56313;49.804;9.952;2022-07-23T00:44:31;13.50;;;6.72;;
69199;SDS011;56313;49.804;9.952;2022-07-23T00:46:57;13.65;;;6.88;;
69199;SDS011;56313;49.804;9.952;2022-07-23T00:49:31;9.05;;;6.75;;
69199;SDS011;56313;49.804;9.952;2022-07-23T00:51:57;10.55;;;6.80;;
69199;SDS011;56313;49.804;9.952;2022-07-23T00:54:31;10.00;;;6.78;;
69199;SDS011;56313;49.804;9.952;2022-07-23T00:56:56;15.80;;;7.00;;
69199;SDS011;56313;49.804;9.952;2022-07-23T00:59:22;10.38;;;7.05;;
69199;SDS011;56313;49.804;9.952;2022-07-23T01:01:48;11.30;;;6.57;;
69199;SDS011;56313;49.804;9.952;2022-07-23T01:04:14;9.00;;;6.07;;
69199;SDS011;56313;49.804;9.952;2022-07-23T01:06:40;10.35;;;6.40;;
69199;SDS011;56313;49.804;9.952;2022-07-23T01:09:09;8.88;;;6.90;;
69199;SDS011;56313;49.804;9.952;2022-07-23T01:11:38;8.38;;;6.15;;
69199;SDS011;56313;49.804;9.952;2022-07-23T01:14:10;13.40;;;6.97;;
69199;SDS011;56313;49.804;9.952;2022-07-23T01:16:40;13.18;;;6.78;;
69199;SDS011;56313;49.804;9.952;2022-07-23T01:19:07;11.50;;;6.47;;
69199;SDS011;56313;49.804;9.952;2022-07-23T01:21:37;8.82;;;6.22;;
69199;SDS011;56313;49.804;9.952;2022-07-23T01:24:06;6.90;;;6.20;;
69199;SDS011;56313;49.804;9.952;2022-07-23T01:26:32;9.35;;;6.50;;
69199;SDS011;56313;49.804;9.952;2022-07-23T01:28:58;10.23;;;6.28;;
69199;SDS011;56313;49.804;9.952;2022-07-23T01:31:24;9.48;;;6.32;;
69199;SDS011;56313;49.804;9.952;2022-07-23T01:33:53;9.95;;;6.03;;
69199;SDS011;56313;49.804;9.952;2022-07-23T01:36:22;9.95;;;6.70;;
69199;SDS011;56313;49.804;9.952;2022-07-23T01:38:50;11.50;;;6.63;;
69199;SDS011;56313;49.804;9.952;2022-07-23T01:41:18;8.75;;;6.28;;
69199;SDS011;56313;49.804;9.952;2022-07-23T01:43:44;8.10;;;6.38;;
69199;SDS011;56313;49.804;9.952;2022-07-23T01:46:10;9.88;;;6.05;;
69199;SDS011;56313;49.804;9.952;2022-07-23T01:48:36;9.43;;;6.40;;
69199;SDS011;56313;49.804;9.952;2022-07-23T01:51:04;10.65;;;6.28;;
69199;SDS011;56313;49.804;9.952;2022-07-23T01:53:29;8.23;;;6.00;;
69199;SDS011;56313;49.804;9.952;2022-07-23T01:55:58;8.88;;;6.28;;
69199;SDS011;56313;49.804;9.952;2022-07-23T01:58:24;9.15;;;6.32;;
69199;SDS011;56313;49.804;9.952;2022-07-23T02:00:50;10.20;;;6.78;;
69199;SDS011;56313;49.804;9.952;2022-07-23T02:03:16;9.60;;;6.80;;
69199;SDS011;56313;49.804;9.952;2022-07-23T02:05:41;8.30;;;6.70;;
69199;SDS011;56313;49.804;9.952;2022-07-23T02:08:09;8.68;;;7.38;;
69199;SDS011;56313;49.804;9.952;2022-07-23T02:10:35;8.95;;;6.85;;
69199;SDS011;56313;49.804;9.952;2022-07-23T02:13:00;12.38;;;7.50;;
69199;SDS011;56313;49.804;9.952;2022-07-23T02:15:26;7.88;;;6.70;;
69199;SDS011;56313;49.804;9.952;2022-07-23T02:17:54;10.50;;;7.65;;
69199;SDS011;56313;49.804;9.952;2022-07-23T02:20:19;10.40;;;6.75;;
69199;SDS011;56313;49.804;9.952;2022-07-23T02:22:45;13.63;;;6.68;;
69199;SDS011;56313;49.804;9.952;2022-07-23T02:25:11;7.95;;;6.22;;
69199;SDS011;56313;49.804;9.952;2022-07-23T02:27:36;12.98;;;6.75;;
69199;SDS011;56313;49.804;9.952;2022-07-23T02:30:02;14.30;;;6.32;;
69199;SDS011;56313;49.804;9.952;2022-07-23T02:32:28;10.93;;;7.05;;
69199;SDS011;56313;49.804;9.952;2022-07-23T02:34:54;9.10;;;6.97;;
69199;SDS011;56313;49.804;9.952;2022-07-23T02:37:19;7.53;;;6.00;;
69199;SDS011;56313;49.804;9.952;2022-07-23T02:39:47;7.35;;;6.18;;
69199;SDS011;56313;49.804;9.952;2022-07-23T02:42:13;8.57;;;5.88;;
69199;SDS011;56313;49.804;9.952;2022-07-23T02:44:39;8.95;;;6.50;;
69199;SDS011;56313;49.804;9.952;2022-07-23T02:47:05;8.35;;;6.03;;
69199;SDS011;56313;49.804;9.952;2022-07-23T02:49:30;13.15;;;6.25;;
69199;SDS011;56313;49.804;9.952;2022-07-23T02:51:58;10.95;;;5.93;;
69199;SDS011;56313;49.804;9.952;2022-07-23T02:54:23;13.20;;;6.03;;
69199;SDS011;56313;49.804;9.952;2022-07-23T02:56:52;8.98;;;6.07;;
69199;SDS011;56313;49.804;9.952;2022-07-23T02:59:17;7.65;;;5.50;;
69199;SDS011;56313;49.804;9.952;2022-07-23T03:01:43;13.40;;;6.30;;
69199;SDS011;56313;49.804;9.952;2022-07-23T03:04:09;6.93;;;5.90;;
69199;SDS011;56313;49.804;9.952;2022-07-23T03:06:35;8.65;;;5.75;;
69199;SDS011;56313;49.804;9.952;2022-07-23T03:09:00;7.28;;;6.20;;
69199;SDS011;56313;49.804;9.952;2022-07-23T03:11:27;8.73;;;5.97;;
69199;SDS011;56313;49.804;9.952;2022-07-23T03:13:53;10.68;;;6.43;;
69199;SDS011;56313;49.804;9.952;2022-07-23T03:16:18;12.23;;;7.80;;
69199;SDS011;56313;49.804;9.952;2022-07-23T03:18:44;11.70;;;7.15;;
69199;SDS011;56313;49.804;9.952;2022-07-23T03:21:09;11.57;;;6.88;;
69199;SDS011;56313;49.804;9.952;2022-07-23T03:23:35;9.38;;;6.95;;
69199;SDS011;56313;49.804;9.952;2022-07-23T03:26:00;8.55;;;6.88;;
69199;SDS011;56313;49.804;9.952;2022-07-23T03:28:25;8.48;;;7.15;;
69199;SDS011;56313;49.804;9.952;2022-07-23T03:30:51;12.30;;;8.00;;
69199;SDS011;56313;49.804;9.952;2022-07-23T03:33:17;10.20;;;7.35;;
69199;SDS011;56313;49.804;9.952;2022-07-23T03:35:46;16.20;;;8.18;;
69199;SDS011;56313;49.804;9.952;2022-07-23T03:38:13;11.43;;;7.40;;
69199;SDS011;56313;49.804;9.952;2022-07-23T03:40:39;10.45;;;7.32;;
69199;SDS011;56313;49.804;9.952;2022-07-23T03:43:04;9.93;;;8.02;;
69199;SDS011;56313;49.804;9.952;2022-07-23T03:45:30;10.73;;;7.60;;
69199;SDS011;56313;49.804;9.952;2022-07-23T03:47:56;8.57;;;7.18;;
69199;SDS011;56313;49.804;9.952;2022-07-23T03:50:22;8.50;;;6.97;;
69199;SDS011;56313;49.804;9.952;2022-07-23T03:52:48;13.63;;;7.55;;
69199;SDS011;56313;49.804;9.952;2022-07-23T03:55:20;10.73;;;7.53;;
69199;SDS011;56313;49.804;9.952;2022-07-23T03:57:47;8.52;;;7.57;;
69199;SDS011;56313;49.804;9.952;2022-07-23T04:00:15;11.95;;;7.70;;
69199;SDS011;56313;49.804;9.952;2022-07-23T04:02:44;9.50;;;8.15;;
69199;SDS011;56313;49.804;9.952;2022-07-23T04:05:12;10.90;;;7.72;;
69199;SDS011;56313;49.804;9.952;2022-07-23T04:07:38;12.70;;;7.82;;
69199;SDS011;56313;49.804;9.952;2022-07-23T04:10:07;9.00;;;7.97;;
69199;SDS011;56313;49.804;9.952;2022-07-23T04:12:32;8.77;;;7.22;;
69199;SDS011;56313;49.804;9.952;2022-07-23T04:14:58;9.13;;;7.65;;
69199;SDS011;56313;49.804;9.952;2022-07-23T04:17:26;12.63;;;8.05;;
69199;SDS011;56313;49.804;9.952;2022-07-23T04:19:53;11.50;;;7.85;;
69199;SDS011;56313;49.804;9.952;2022-07-23T04:22:18;8.88;;;7.97;;
69199;SDS011;56313;49.804;9.952;2022-07-23T04:24:44;8.63;;;7.50;;
69199;SDS011;56313;49.804;9.952;2022-07-23T04:27:09;12.95;;;8.73;;
69199;SDS011;56313;49.804;9.952;2022-07-23T04:29:37;14.18;;;8.15;;
69199;SDS011;56313;49.804;9.952;2022-07-23T04:32:03;10.32;;;7.47;;
69199;SDS011;56313;49.804;9.952;2022-07-23T04:34:28;12.10;;;8.90;;
69199;SDS011;56313;49.804;9.952;2022-07-23T04:36:56;12.00;;;8.73;;
69199;SDS011;56313;49.804;9.952;2022-07-23T04:39:22;11.98;;;8.63;;
69199;SDS011;56313;49.804;9.952;2022-07-23T04:41:47;11.63;;;8.40;;
69199;SDS011;56313;49.804;9.952;2022-07-23T04:44:12;12.48;;;9.27;;
69199;SDS011;56313;49.804;9.952;2022-07-23T04:46:38;10.20;;;8.43;;
69199;SDS011;56313;49.804;9.952;2022-07-23T04:49:04;9.55;;;8.20;;
69199;SDS011;56313;49.804;9.952;2022-07-23T04:51:29;11.02;;;8.57;;
69199;SDS011;56313;49.804;9.952;2022-07-23T04:53:55;11.68;;;8.68;;
69199;SDS011;56313;49.804;9.952;2022-07-23T04:56:21;11.05;;;8.40;;
69199;SDS011;56313;49.804;9.952;2022-07-23T04:58:46;9.60;;;8.60;;
69199;SDS011;56313;49.804;9.952;2022-07-23T05:01:12;10.75;;;8.60;;
69199;SDS011;56313;49.804;9.952;2022-07-23T05:03:37;11.27;;;8.38;;
69199;SDS011;56313;49.804;9.952;2022-07-23T05:06:06;13.43;;;8.10;;
69199;SDS011;56313;49.804;9.952;2022-07-23T05:08:31;9.48;;;8.50;;
69199;SDS011;56313;49.804;9.952;2022-07-23T05:10:56;12.57;;;8.75;;
69199;SDS011;56313;49.804;9.952;2022-07-23T05:13:22;9.05;;;8.15;;
69199;SDS011;56313;49.804;9.952;2022-07-23T05:15:47;10.80;;;8.55;;
69199;SDS011;56313;49.804;9.952;2022-07-23T05:18:13;8.98;;;7.80;;
69199;SDS011;56313;49.804;9.952;2022-07-23T05:20:38;12.18;;;7.88;;
69199;SDS011;56313;49.804;9.952;2022-07-23T05:23:09;12.15;;;7.80;;
69199;SDS011;56313;49.804;9.952;2022-07-23T05:25:35;10.55;;;8.25;;
69199;SDS011;56313;49.804;9.952;2022-07-23T05:28:01;12.10;;;8.38;;
69199;SDS011;56313;49.804;9.952;2022-07-23T05:30:26;10.15;;;8.57;;
69199;SDS011;56313;49.804;9.952;2022-07-23T05:32:52;13.38;;;10.40;;
69199;SDS011;56313;49.804;9.952;2022-07-23T05:35:17;11.15;;;8.75;;
69199;SDS011;56313;49.804;9.952;2022-07-23T05:37:43;14.10;;;10.48;;
69199;SDS011;56313;49.804;9.952;2022-07-23T05:40:09;11.93;;;8.50;;
69199;SDS011;56313;49.804;9.952;2022-07-23T05:42:35;10.82;;;7.82;;
69199;SDS011;56313;49.804;9.952;2022-07-23T05:45:02;11.52;;;8.20;;
69199;SDS011;56313;49.804;9.952;2022-07-23T05:47:44;10.38;;;8.80;;
69199;SDS011;56313;49.804;9.952;2022-07-23T05:50:17;11.95;;;8.38;;
69199;SDS011;56313;49.804;9.952;2022-07-23T05:52:48;10.30;;;8.50;;
69199;SDS011;56313;49.804;9.952;2022-07-23T05:58:21;12.10;;;8.77;;
69199;SDS011;56313;49.804;9.952;2022-07-23T06:00:46;14.13;;;9.23;;
69199;SDS011;56313;49.804;9.952;2022-07-23T06:03:12;11.52;;;8.93;;
69199;SDS011;56313;49.804;9.952;2022-07-23T06:05:37;12.00;;;9.77;;
69199;SDS011;56313;49.804;9.952;2022-07-23T06:08:03;12.73;;;9.45;;
69199;SDS011;56313;49.804;9.952;2022-07-23T06:10:28;18.02;;;10.82;;
69199;SDS011;56313;49.804;9.952;2022-07-23T06:12:54;14.15;;;10.02;;
69199;SDS011;56313;49.804;9.952;2022-07-23T06:15:19;10.95;;;9.43;;
69199;SDS011;56313;49.804;9.952;2022-07-23T06:17:45;13.02;;;10.40;;
69199;SDS011;56313;49.804;9.952;2022-07-23T06:20:10;17.10;;;12.25;;
69199;SDS011;56313;49.804;9.952;2022-07-23T06:22:38;12.80;;;11.15;;
69199;SDS011;56313;49.804;9.952;2022-07-23T06:25:04;11.95;;;10.75;;
69199;SDS011;56313;49.804;9.952;2022-07-23T06:27:30;12.45;;;10.93;;
69199;SDS011;56313;49.804;9.952;2022-07-23T06:29:55;16.45;;;11.35;;
69199;SDS011;56313;49.804;9.952;2022-07-23T06:32:21;11.80;;;10.18;;
69199;SDS011;56313;49.804;9.952;2022-07-23T06:34:46;13.63;;;11.00;;
69199;SDS011;56313;49.804;9.952;2022-07-23T06:37:12;12.82;;;10.90;;
69199;SDS011;56313;49.804;9.952;2022-07-23T06:39:37;12.23;;;10.90;;
69199;SDS011;56313;49.804;9.952;2022-07-23T06:42:02;16.27;;;11.52;;
69199;SDS011;56313;49.804;9.952;2022-07-23T06:44:28;12.30;;;9.93;;
69199;SDS011;56313;49.804;9.952;2022-07-23T06:46:53;15.15;;;10.23;;
69199;SDS011;56313;49.804;9.952;2022-07-23T06:49:19;10.82;;;9.68;;
69199;SDS011;56313;49.804;9.952;2022-07-23T06:51:44;11.65;;;10.45;;
69199;SDS011;56313;49.804;9.952;2022-07-23T06:54:10;14.18;;;10.63;;
69199;SDS011;56313;49.804;9.952;2022-07-23T06:56:36;13.93;;;10.65;;
69199;SDS011;56313;49.804;9.952;2022-07-23T06:59:01;12.75;;;10.07;;
69199;SDS011;56313;49.804;9.952;2022-07-23T07:01:27;14.25;;;10.13;;
69199;SDS011;56313;49.804;9.952;2022-07-23T07:03:52;14.90;;;10.32;;
69199;SDS011;56313;49.804;9.952;2022-07-23T07:06:18;13.77;;;11.18;;
69199;SDS011;56313;49.804;9.952;2022-07-23T07:08:43;14.63;;;10.55;;
69199;SDS011;56313;49.804;9.952;2022-07-23T07:11:09;30.17;;;13.55;;
69199;SDS011;56313;49.804;9.952;2022-07-23T07:13:35;47.20;;;15.70;;
69199;SDS011;56313;49.804;9.952;2022-07-23T07:16:01;37.35;;;12.95;;
69199;SDS011;56313;49.804;9.952;2022-07-23T07:18:26;258.88;;;38.85;;
69199;SDS011;56313;49.804;9.952;2022-07-23T07:20:54;340.92;;;50.80;;
69199;SDS011;56313;49.804;9.952;2022-07-23T07:23:20;59.08;;;16.30;;
69199;SDS011;56313;49.804;9.952;2022-07-23T07:25:46;14.77;;;10.73;;
69199;SDS011;56313;49.804;9.952;2022-07-23T07:28:12;11.30;;;10.20;;
69199;SDS011;56313;49.804;9.952;2022-07-23T07:30:37;15.93;;;10.90;;
69199;SDS011;56313;49.804;9.952;2022-07-23T07:33:03;34.85;;;12.77;;
69199;SDS011;56313;49.804;9.952;2022-07-23T07:35:29;130.73;;;22.83;;
69199;SDS011;56313;49.804;9.952;2022-07-23T07:37:56;19.48;;;11.27;;
69199;SDS011;56313;49.804;9.952;2022-07-23T07:40:21;13.05;;;11.02;;
69199;SDS011;56313;49.804;9.952;2022-07-23T07:42:47;15.70;;;10.07;;
69199;SDS011;56313;49.804;9.952;2022-07-23T07:45:14;14.25;;;11.00;;
69199;SDS011;56313;49.804;9.952;2022-07-23T07:47:40;12.80;;;10.20;;
69199;SDS011;56313;49.804;9.952;2022-07-23T07:50:06;14.18;;;10.52;;
69199;SDS011;56313;49.804;9.952;2022-07-23T07:52:33;13.05;;;10.48;;
69199;SDS011;56313;49.804;9.952;2022-07-23T07:55:01;13.07;;;10.65;;
69199;SDS011;56313;49.804;9.952;2022-07-23T07:57:27;11.90;;;10.27;;
69199;SDS011;56313;49.804;9.952;2022-07-23T07:59:52;13.43;;;10.85;;
69199;SDS011;56313;49.804;9.952;2022-07-23T08:02:43;14.27;;;11.15;;
69199;SDS011;56313;49.804;9.952;2022-07-23T08:05:10;12.27;;;10.23;;
69199;SDS011;56313;49.804;9.952;2022-07-23T08:07:36;13.05;;;10.43;;
69199;SDS011;56313;49.804;9.952;2022-07-23T08:10:08;11.70;;;10.18;;
69199;SDS011;56313;49.804;9.952;2022-07-23T08:12:40;12.38;;;9.65;;
69199;SDS011;56313;49.804;9.952;2022-07-23T08:15:17;12.80;;;9.93;;
69199;SDS011;56313;49.804;9.952;2022-07-23T08:17:44;13.02;;;10.18;;
69199;SDS011;56313;49.804;9.952;2022-07-23T08:20:11;13.30;;;9.88;;
69199;SDS011;56313;49.804;9.952;2022-07-23T08:25:16;10.30;;;8.52;;
69199;SDS011;56313;49.804;9.952;2022-07-23T08:27:45;12.07;;;8.90;;
69199;SDS011;56313;49.804;9.952;2022-07-23T08:30:10;11.57;;;9.50;;
69199;SDS011;56313;49.804;9.952;2022-07-23T08:35:22;12.70;;;9.68;;
69199;SDS011;56313;49.804;9.952;2022-07-23T08:37:50;12.75;;;8.60;;
69199;SDS011;56313;49.804;9.952;2022-07-23T08:40:15;11.40;;;8.35;;
69199;SDS011;56313;49.804;9.952;2022-07-23T08:42:40;15.07;;;8.98;;
69199;SDS011;56313;49.804;9.952;2022-07-23T08:45:07;12.82;;;9.65;;
69199;SDS011;56313;49.804;9.952;2022-07-23T08:47:34;25.27;;;10.45;;
69199;SDS011;56313;49.804;9.952;2022-07-23T08:50:01;11.20;;;8.50;;
69199;SDS011;56313;49.804;9.952;2022-07-23T08:52:27;10.60;;;8.88;;
69199;SDS011;56313;49.804;9.952;2022-07-23T08:54:55;11.10;;;8.73;;
69199;SDS011;56313;49.804;9.952;2022-07-23T08:57:22;14.35;;;8.65;;
69199;SDS011;56313;49.804;9.952;2022-07-23T08:59:47;11.52;;;9.60;;
69199;SDS011;56313;49.804;9.952;2022-07-23T09:02:13;11.88;;;8.98;;
69199;SDS011;56313;49.804;9.952;2022-07-23T09:04:38;11.57;;;8.98;;
69199;SDS011;56313;49.804;9.952;2022-07-23T09:07:04;10.52;;;8.90;;
69199;SDS011;56313;49.804;9.952;2022-07-23T09:09:30;13.35;;;8.90;;
69199;SDS011;56313;49.804;9.952;2022-07-23T09:12:06;11.90;;;7.80;;
69199;SDS011;56313;49.804;9.952;2022-07-23T09:14:37;11.65;;;8.77;;
69199;SDS011;56313;49.804;9.952;2022-07-23T09:17:13;10.30;;;8.63;;
69199;SDS011;56313;49.804;9.952;2022-07-23T09:19:40;12.75;;;9.48;;
69199;SDS011;56313;49.804;9.952;2022-07-23T09:25:10;11.65;;;9.38;;
69199;SDS011;56313;49.804;9.952;2022-07-23T09:27:49;11.32;;;8.90;;
69199;SDS011;56313;49.804;9.952;2022-07-23T09:30:23;10.48;;;7.65;;
69199;SDS011;56313;49.804;9.952;2022-07-23T09:33:11;11.63;;;8.43;;
69199;SDS011;56313;49.804;9.952;2022-07-23T09:35:47;12.82;;;8.55;;
69199;SDS011;56313;49.804;9.952;2022-07-23T09:38:15;10.10;;;8.25;;
69199;SDS011;56313;49.804;9.952;2022-07-23T09:40:41;10.80;;;7.97;;
69199;SDS011;56313;49.804;9.952;2022-07-23T09:43:06;10.30;;;7.90;;
69199;SDS011;56313;49.804;9.952;2022-07-23T09:45:32;13.27;;;8.25;;
69199;SDS011;56313;49.804;9.952;2022-07-23T09:48:13;10.85;;;8.05;;
69199;SDS011;56313;49.804;9.952;2022-07-23T09:50:40;12.07;;;8.53;;
69199;SDS011;56313;49.804;9.952;2022-07-23T09:53:06;11.98;;;8.77;;
69199;SDS011;56313;49.804;9.952;2022-07-23T09:55:32;13.93;;;8.82;;
69199;SDS011;56313;49.804;9.952;2022-07-23T09:58:02;10.00;;;8.02;;
69199;SDS011;56313;49.804;9.952;2022-07-23T10:00:28;11.48;;;9.05;;
69199;SDS011;56313;49.804;9.952;2022-07-23T10:02:58;12.55;;;8.73;;
69199;SDS011;56313;49.804;9.952;2022-07-23T10:05:25;11.18;;;8.65;;
69199;SDS011;56313;49.804;9.952;2022-07-23T10:07:50;9.60;;;7.88;;
69199;SDS011;56313;49.804;9.952;2022-07-23T10:10:16;12.77;;;8.63;;
69199;SDS011;56313;49.804;9.952;2022-07-23T10:12:43;11.32;;;8.50;;
69199;SDS011;56313;49.804;9.952;2022-07-23T10:15:27;9.82;;;8.23;;
69199;SDS011;56313;49.804;9.952;2022-07-23T10:17:54;9.82;;;8.60;;
69199;SDS011;56313;49.804;9.952;2022-07-23T10:20:19;8.98;;;8.07;;
69199;SDS011;56313;49.804;9.952;2022-07-23T10:26:14;10.45;;;8.10;;
69199;SDS011;56313;49.804;9.952;2022-07-23T10:28:53;10.52;;;8.43;;
69199;SDS011;56313;49.804;9.952;2022-07-23T10:37:17;10.35;;;8.43;;
69199;SDS011;56313;49.804;9.952;2022-07-23T10:40:12;12.38;;;9.10;;
69199;SDS011;56313;49.804;9.952;2022-07-23T10:42:39;11.60;;;8.88;;
69199;SDS011;56313;49.804;9.952;2022-07-23T10:47:54;10.95;;;7.82;;
69199;SDS011;56313;49.804;9.952;2022-07-23T10:50:21;9.88;;;7.63;;
69199;SDS011;56313;49.804;9.952;2022-07-23T10:57:56;11.48;;;7.68;;
69199;SDS011;56313;49.804;9.952;2022-07-23T11:00:26;10.07;;;7.53;;
69199;SDS011;56313;49.804;9.952;2022-07-23T11:02:54;10.52;;;8.38;;
69199;SDS011;56313;49.804;9.952;2022-07-23T11:05:43;8.45;;;7.50;;
69199;SDS011;56313;49.804;9.952;2022-07-23T11:10:37;10.48;;;7.78;;
69199;SDS011;56313;49.804;9.952;2022-07-23T11:31:57;9.10;;;7.95;;
69199;SDS011;56313;49.804;9.952;2022-07-23T11:34:34;9.65;;;8.20;;
69199;SDS011;56313;49.804;9.952;2022-07-23T11:37:02;10.85;;;7.93;;
69199;SDS011;56313;49.804;9.952;2022-07-23T11:39:29;12.95;;;7.82;;
69199;SDS011;56313;49.804;9.952;2022-07-23T11:41:56;8.98;;;7.70;;
69199;SDS011;56313;49.804;9.952;2022-07-23T11:44:29;8.48;;;7.63;;
69199;SDS011;56313;49.804;9.952;2022-07-23T11:47:03;9.32;;;8.27;;
69199;SDS011;56313;49.804;9.952;2022-07-23T11:49:30;8.48;;;7.68;;
69199;SDS011;56313;49.804;9.952;2022-07-23T11:52:06;10.10;;;7.90;;
69199;SDS011;56313;49.804;9.952;2022-07-23T11:54:34;10.43;;;8.38;;
69199;SDS011;56313;49.804;9.952;2022-07-23T11:57:01;9.98;;;8.30;;
69199;SDS011;56313;49.804;9.952;2022-07-23T11:59:29;10.80;;;8.60;;
69199;SDS011;56313;49.804;9.952;2022-07-23T12:09:53;10.15;;;8.77;;
69199;SDS011;56313;49.804;9.952;2022-07-23T12:12:20;10.65;;;8.52;;
69199;SDS011;56313;49.804;9.952;2022-07-23T12:17:41;11.05;;;8.68;;
69199;SDS011;56313;49.804;9.952;2022-07-23T12:20:09;8.77;;;7.88;;
69199;SDS011;56313;49.804;9.952;2022-07-23T12:22:45;12.60;;;7.57;;
69199;SDS011;56313;49.804;9.952;2022-07-23T12:25:16;8.48;;;6.95;;
69199;SDS011;56313;49.804;9.952;2022-07-23T12:27:43;10.15;;;6.97;;
69199;SDS011;56313;49.804;9.952;2022-07-23T12:30:23;9.52;;;7.80;;
69199;SDS011;56313;49.804;9.952;2022-07-23T12:32:55;11.52;;;7.80;;
69199;SDS011;56313;49.804;9.952;2022-07-23T12:35:22;9.07;;;7.45;;
69199;SDS011;56313;49.804;9.952;2022-07-23T12:37:59;8.70;;;7.78;;
69199;SDS011;56313;49.804;9.952;2022-07-23T12:40:45;8.77;;;7.78;;
69199;SDS011;56313;49.804;9.952;2022-07-23T12:43:33;8.88;;;7.97;;
69199;SDS011;56313;49.804;9.952;2022-07-23T12:46:09;11.35;;;8.68;;
69199;SDS011;56313;49.804;9.952;2022-07-23T12:48:37;9.65;;;7.68;;
69199;SDS011;56313;49.804;9.952;2022-07-23T12:51:08;8.02;;;7.10;;
69199;SDS011;56313;49.804;9.952;2022-07-23T12:53:41;9.57;;;7.55;;
69199;SDS011;56313;49.804;9.952;2022-07-23T12:56:10;8.30;;;7.47;;
69199;SDS011;56313;49.804;9.952;2022-07-23T13:01:05;9.90;;;7.82;;
69199;SDS011;56313;49.804;9.952;2022-07-23T13:03:41;12.73;;;7.50;;
69199;SDS011;56313;49.804;9.952;2022-07-23T13:06:08;8.52;;;7.63;;
69199;SDS011;56313;49.804;9.952;2022-07-23T13:08:36;9.02;;;7.95;;
69199;SDS011;56313;49.804;9.952;2022-07-23T13:11:03;11.02;;;7.93;;
69199;SDS011;56313;49.804;9.952;2022-07-23T13:13:30;8.57;;;6.78;;
69199;SDS011;56313;49.804;9.952;2022-07-23T13:15:57;9.35;;;6.57;;
69199;SDS011;56313;49.804;9.952;2022-07-23T13:18:27;8.80;;;7.00;;
69199;SDS011;56313;49.804;9.952;2022-07-23T13:20:53;10.00;;;7.75;;
69199;SDS011;56313;49.804;9.952;2022-07-23T13:23:19;9.27;;;7.85;;
69199;SDS011;56313;49.804;9.952;2022-07-23T13:25:46;9.82;;;6.95;;
69199;SDS011;56313;49.804;9.952;2022-07-23T13:28:12;11.30;;;7.57;;
69199;SDS011;56313;49.804;9.952;2022-07-23T13:30:39;10.18;;;7.30;;
69199;SDS011;56313;49.804;9.952;2022-07-23T13:33:05;10.95;;;7.38;;
69199;SDS011;56313;49.804;9.952;2022-07-23T13:35:32;7.90;;;7.18;;
69199;SDS011;56313;49.804;9.952;2022-07-23T13:37:58;9.80;;;7.40;;
69199;SDS011;56313;49.804;9.952;2022-07-23T13:40:24;13.20;;;8.77;;
69199;SDS011;56313;49.804;9.952;2022-07-23T13:42:49;8.57;;;7.30;;
69199;SDS011;56313;49.804;9.952;2022-07-23T13:45:15;8.15;;;6.93;;
69199;SDS011;56313;49.804;9.952;2022-07-23T13:47:41;8.48;;;6.90;;
69199;SDS011;56313;49.804;9.952;2022-07-23T13:50:13;8.20;;;6.97;;
69199;SDS011;56313;49.804;9.952;2022-07-23T13:52:41;9.95;;;7.40;;
69199;SDS011;56313;49.804;9.952;2022-07-23T13:55:10;8.35;;;6.93;;
69199;SDS011;56313;49.804;9.952;2022-07-23T13:57:38;8.45;;;7.55;;
69199;SDS011;56313;49.804;9.952;2022-07-23T14:00:08;10.20;;;7.53;;
69199;SDS011;56313;49.804;9.952;2022-07-23T14:02:39;10.38;;;7.32;;
69199;SDS011;56313;49.804;9.952;2022-07-23T14:05:06;8.95;;;6.53;;
69199;SDS011;56313;49.804;9.952;2022-07-23T14:07:33;9.82;;;7.13;;
69199;SDS011;56313;49.804;9.952;2022-07-23T14:09:59;8.85;;;7.03;;
69199;SDS011;56313;49.804;9.952;2022-07-23T14:12:25;8.35;;;6.82;;
69199;SDS011;56313;49.804;9.952;2022-07-23T14:14:51;9.98;;;7.15;;
69199;SDS011;56313;49.804;9.952;2022-07-23T14:17:16;9.07;;;7.05;;
69199;SDS011;56313;49.804;9.952;2022-07-23T14:19:42;9.75;;;6.93;;
69199;SDS011;56313;49.804;9.952;2022-07-23T14:22:08;7.93;;;6.70;;
69199;SDS011;56313;49.804;9.952;2022-07-23T14:24:33;8.15;;;6.82;;
69199;SDS011;56313;49.804;9.952;2022-07-23T14:26:59;9.88;;;7.80;;
69199;SDS011;56313;49.804;9.952;2022-07-23T14:29:26;7.68;;;6.97;;
69199;SDS011;56313;49.804;9.952;2022-07-23T14:31:52;9.55;;;7.60;;
69199;SDS011;56313;49.804;9.952;2022-07-23T14:34:18;8.13;;;7.18;;
69199;SDS011;56313;49.804;9.952;2022-07-23T14:36:43;8.45;;;7.35;;
69199;SDS011;56313;49.804;9.952;2022-07-23T14:39:09;8.80;;;6.95;;
69199;SDS011;56313;49.804;9.952;2022-07-23T14:41:35;8.85;;;6.78;;
69199;SDS011;56313;49.804;9.952;2022-07-23T14:44:00;7.68;;;6.65;;
69199;SDS011;56313;49.804;9.952;2022-07-23T14:46:26;10.25;;;6.95;;
69199;SDS011;56313;49.804;9.952;2022-07-23T14:48:52;7.68;;;6.75;;
69199;SDS011;56313;49.804;9.952;2022-07-23T14:51:17;9.43;;;7.70;;
69199;SDS011;56313;49.804;9.952;2022-07-23T14:53:46;8.63;;;7.22;;
69199;SDS011;56313;49.804;9.952;2022-07-23T14:56:12;8.90;;;6.85;;
69199;SDS011;56313;49.804;9.952;2022-07-23T14:58:39;8.30;;;7.00;;
69199;SDS011;56313;49.804;9.952;2022-07-23T15:01:06;8.63;;;6.15;;
69199;SDS011;56313;49.804;9.952;2022-07-23T15:03:31;7.95;;;6.55;;
69199;SDS011;56313;49.804;9.952;2022-07-23T15:05:57;10.35;;;6.47;;
69199;SDS011;56313;49.804;9.952;2022-07-23T15:08:26;8.57;;;7.18;;
69199;SDS011;56313;49.804;9.952;2022-07-23T15:10:54;8.30;;;7.50;;
69199;SDS011;56313;49.804;9.952;2022-07-23T15:13:34;10.35;;;7.20;;
69199;SDS011;56313;49.804;9.952;2022-07-23T15:15:59;9.68;;;7.25;;
69199;SDS011;56313;49.804;9.952;2022-07-23T15:18:24;11.45;;;6.60;;
69199;SDS011;56313;49.804;9.952;2022-07-23T15:20:50;8.35;;;6.68;;
69199;SDS011;56313;49.804;9.952;2022-07-23T15:23:15;8.52;;;6.90;;
69199;SDS011;56313;49.804;9.952;2022-07-23T15:25:41;9.32;;;6.88;;
69199;SDS011;56313;49.804;9.952;2022-07-23T15:28:06;9.10;;;6.80;;
69199;SDS011;56313;49.804;9.952;2022-07-23T15:30:33;10.38;;;6.18;;
69199;SDS011;56313;49.804;9.952;2022-07-23T15:33:18;7.75;;;6.60;;
69199;SDS011;56313;49.804;9.952;2022-07-23T15:35:44;8.20;;;6.93;;
69199;SDS011;56313;49.804;9.952;2022-07-23T15:38:17;9.23;;;6.32;;
69199;SDS011;56313;49.804;9.952;2022-07-23T15:40:43;9.93;;;6.80;;
69199;SDS011;56313;49.804;9.952;2022-07-23T15:43:08;7.00;;;6.30;;
69199;SDS011;56313;49.804;9.952;2022-07-23T15:45:34;9.57;;;6.85;;